sensor_id;sensor_type;location;lat;lon;timestamp;temperature;humidity
9925;DHT22;5001;51.674;7.868;2023-06-04T00:02:22;12.20;99.90
9925;DHT22;5001;51.674;7.868;2023-06-04T00:04:49;12.20;99.90
9925;DHT22;5001;51.674;7.868;2023-06-04T00:07:16;12.20;99.90
9925;DHT22;5001;51.674;7.868;2023-06-04T00:09:43;12.10;99.90
9925;DHT22;5001;51.674;7.868;2023-06-04T00:12:16;12.10;99.90
9925;DHT22;5001;51.674;7.868;2023-06-04T00:14:43;12.20;99.90
9925;DHT22;5001;51.674;7.868;2023-06-04T00:17:10;12.10;99.90
9925;DHT22;5001;51.674;7.868;2023-06-04T00:19:40;12.00;99.90
9925;DHT22;5001;51.674;7.868;2023-06-04T00:22:08;12.00;99.90
9925;DHT22;5001;51.674;7.868;2023-06-04T00:24:37;12.00;99.90
9925;DHT22;5001;51.674;7.868;2023-06-04T00:27:10;12.00;99.90
9925;DHT22;5001;51.674;7.868;2023-06-04T00:29:37;12.10;99.90
9925;DHT22;5001;51.674;7.868;2023-06-04T00:32:05;12.00;99.90
9925;DHT22;5001;51.674;7.868;2023-06-04T00:34:32;12.00;99.90
9925;DHT22;5001;51.674;7.868;2023-06-04T00:36:59;11.90;99.90
9925;DHT22;5001;51.674;7.868;2023-06-04T00:39:28;12.00;99.90
9925;DHT22;5001;51.674;7.868;2023-06-04T00:41:56;11.90;99.90
9925;DHT22;5001;51.674;7.868;2023-06-04T00:44:23;11.90;99.90
9925;DHT22;5001;51.674;7.868;2023-06-04T00:46:52;11.80;99.90
9925;DHT22;5001;51.674;7.868;2023-06-04T00:49:20;11.80;99.90
9925;DHT22;5001;51.674;7.868;2023-06-04T00:51:49;11.80;99.90
9925;DHT22;5001;51.674;7.868;2023-06-04T00:54:16;11.80;99.90
9925;DHT22;5001;51.674;7.868;2023-06-04T00:56:44;11.80;99.90
9925;DHT22;5001;51.674;7.868;2023-06-04T00:59:12;11.70;99.90
9925;DHT22;5001;51.674;7.868;2023-06-04T01:02:14;11.70;99.90
9925;DHT22;5001;51.674;7.868;2023-06-04T01:07:14;11.70;99.90
9925;DHT22;5001;51.674;7.868;2023-06-04T01:09:44;11.70;99.90
9925;DHT22;5001;51.674;7.868;2023-06-04T01:12:11;11.70;99.90
9925;DHT22;5001;51.674;7.868;2023-06-04T01:14:39;11.70;99.90
9925;DHT22;5001;51.674;7.868;2023-06-04T01:25:41;11.40;99.90
9925;DHT22;5001;51.674;7.868;2023-06-04T01:28:12;11.40;99.90
9925;DHT22;5001;51.674;7.868;2023-06-04T01:30:42;11.20;99.90
9925;DHT22;5001;51.674;7.868;2023-06-04T01:33:14;11.00;99.90
9925;DHT22;5001;51.674;7.868;2023-06-04T01:35:41;10.40;99.90
9925;DHT22;5001;51.674;7.868;2023-06-04T01:38:09;10.00;99.90
9925;DHT22;5001;51.674;7.868;2023-06-04T01:40:36;9.70;99.90
9925;DHT22;5001;51.674;7.868;2023-06-04T01:43:04;9.80;99.90
9925;DHT22;5001;51.674;7.868;2023-06-04T01:45:31;10.00;99.90
9925;DHT22;5001;51.674;7.868;2023-06-04T01:48:01;10.10;99.90
9925;DHT22;5001;51.674;7.868;2023-06-04T01:50:29;10.20;99.90
9925;DHT22;5001;51.674;7.868;2023-06-04T01:52:57;10.30;99.90
9925;DHT22;5001;51.674;7.868;2023-06-04T01:55:24;10.40;99.90
9925;DHT22;5001;51.674;7.868;2023-06-04T01:57:52;10.40;99.90
9925;DHT22;5001;51.674;7.868;2023-06-04T02:00:20;10.40;99.90
9925;DHT22;5001;51.674;7.868;2023-06-04T02:02:47;10.50;99.90
9925;DHT22;5001;51.674;7.868;2023-06-04T02:05:15;10.50;99.90
9925;DHT22;5001;51.674;7.868;2023-06-04T02:07:43;10.50;99.90
9925;DHT22;5001;51.674;7.868;2023-06-04T02:10:13;10.60;99.90
9925;DHT22;5001;51.674;7.868;2023-06-04T02:12:52;10.50;99.90
9925;DHT22;5001;51.674;7.868;2023-06-04T02:15:20;10.50;99.90
9925;DHT22;5001;51.674;7.868;2023-06-04T02:17:47;10.40;99.90
9925;DHT22;5001;51.674;7.868;2023-06-04T02:20:14;10.40;99.90
9925;DHT22;5001;51.674;7.868;2023-06-04T02:22:42;10.30;99.90
9925;DHT22;5001;51.674;7.868;2023-06-04T02:25:09;10.10;99.90
9925;DHT22;5001;51.674;7.868;2023-06-04T02:27:36;10.00;99.90
9925;DHT22;5001;51.674;7.868;2023-06-04T02:30:04;10.00;99.90
9925;DHT22;5001;51.674;7.868;2023-06-04T02:32:32;10.10;99.90
9925;DHT22;5001;51.674;7.868;2023-06-04T02:35:00;10.10;99.90
9925;DHT22;5001;51.674;7.868;2023-06-04T02:37:27;10.10;99.90
9925;DHT22;5001;51.674;7.868;2023-06-04T02:39:54;10.10;99.90
9925;DHT22;5001;51.674;7.868;2023-06-04T02:42:22;10.10;99.90
9925;DHT22;5001;51.674;7.868;2023-06-04T02:44:48;10.10;99.90
9925;DHT22;5001;51.674;7.868;2023-06-04T02:47:17;10.00;99.90
9925;DHT22;5001;51.674;7.868;2023-06-04T02:49:46;10.00;99.90
9925;DHT22;5001;51.674;7.868;2023-06-04T02:52:13;10.10;99.90
9925;DHT22;5001;51.674;7.868;2023-06-04T02:54:40;10.00;99.90
9925;DHT22;5001;51.674;7.868;2023-06-04T02:57:07;9.50;99.90
9925;DHT22;5001;51.674;7.868;2023-06-04T02:59:35;9.00;99.90
9925;DHT22;5001;51.674;7.868;2023-06-04T03:02:03;8.90;99.90
9925;DHT22;5001;51.674;7.868;2023-06-04T03:04:31;9.00;99.90
9925;DHT22;5001;51.674;7.868;2023-06-04T03:07:02;9.00;99.90
9925;DHT22;5001;51.674;7.868;2023-06-04T03:09:30;9.20;99.90
9925;DHT22;5001;51.674;7.868;2023-06-04T03:12:00;9.20;99.90
9925;DHT22;5001;51.674;7.868;2023-06-04T03:14:31;9.30;99.90
9925;DHT22;5001;51.674;7.868;2023-06-04T03:17:00;9.40;99.90
9925;DHT22;5001;51.674;7.868;2023-06-04T03:19:39;9.50;99.90
9925;DHT22;5001;51.674;7.868;2023-06-04T03:22:08;9.50;99.90
9925;DHT22;5001;51.674;7.868;2023-06-04T03:24:40;9.60;99.90
9925;DHT22;5001;51.674;7.868;2023-06-04T03:27:09;9.70;99.90
9925;DHT22;5001;51.674;7.868;2023-06-04T03:29:39;9.70;99.90
9925;DHT22;5001;51.674;7.868;2023-06-04T03:32:07;9.90;99.90
9925;DHT22;5001;51.674;7.868;2023-06-04T03:34:36;10.20;99.90
9925;DHT22;5001;51.674;7.868;2023-06-04T03:37:03;10.40;99.90
9925;DHT22;5001;51.674;7.868;2023-06-04T03:39:31;10.50;99.90
9925;DHT22;5001;51.674;7.868;2023-06-04T03:42:01;9.60;99.90
9925;DHT22;5001;51.674;7.868;2023-06-04T03:44:29;9.40;99.90
9925;DHT22;5001;51.674;7.868;2023-06-04T03:46:56;9.20;99.90
9925;DHT22;5001;51.674;7.868;2023-06-04T03:49:23;9.30;99.90
9925;DHT22;5001;51.674;7.868;2023-06-04T03:51:50;9.80;99.90
9925;DHT22;5001;51.674;7.868;2023-06-04T03:54:19;10.40;99.90
9925;DHT22;5001;51.674;7.868;2023-06-04T03:56:48;11.00;99.90
9925;DHT22;5001;51.674;7.868;2023-06-04T03:59:15;11.70;99.90
9925;DHT22;5001;51.674;7.868;2023-06-04T04:01:43;12.40;99.90
9925;DHT22;5001;51.674;7.868;2023-06-04T04:04:10;12.70;99.90
9925;DHT22;5001;51.674;7.868;2023-06-04T04:06:38;12.60;99.90
9925;DHT22;5001;51.674;7.868;2023-06-04T04:09:05;12.60;99.90
9925;DHT22;5001;51.674;7.868;2023-06-04T04:11:34;12.50;99.90
9925;DHT22;5001;51.674;7.868;2023-06-04T04:14:02;12.20;99.90
9925;DHT22;5001;51.674;7.868;2023-06-04T04:16:30;12.10;99.90
9925;DHT22;5001;51.674;7.868;2023-06-04T04:18:57;12.70;99.90
9925;DHT22;5001;51.674;7.868;2023-06-04T04:21:25;13.30;99.90
9925;DHT22;5001;51.674;7.868;2023-06-04T04:23:52;14.20;99.90
9925;DHT22;5001;51.674;7.868;2023-06-04T04:26:19;14.80;99.90
9925;DHT22;5001;51.674;7.868;2023-06-04T04:28:50;15.10;99.90
9925;DHT22;5001;51.674;7.868;2023-06-04T04:31:20;15.60;99.90
9925;DHT22;5001;51.674;7.868;2023-06-04T04:33:50;16.00;99.90
9925;DHT22;5001;51.674;7.868;2023-06-04T04:36:18;16.00;99.90
9925;DHT22;5001;51.674;7.868;2023-06-04T04:38:49;16.10;99.90
9925;DHT22;5001;51.674;7.868;2023-06-04T04:41:24;16.30;99.90
9925;DHT22;5001;51.674;7.868;2023-06-04T04:43:53;16.70;99.90
9925;DHT22;5001;51.674;7.868;2023-06-04T04:46:26;17.10;99.90
9925;DHT22;5001;51.674;7.868;2023-06-04T04:48:53;17.70;99.90
9925;DHT22;5001;51.674;7.868;2023-06-04T04:51:20;18.00;99.90
9925;DHT22;5001;51.674;7.868;2023-06-04T04:53:48;18.60;99.90
9925;DHT22;5001;51.674;7.868;2023-06-04T04:56:15;19.00;99.90
9925;DHT22;5001;51.674;7.868;2023-06-04T04:58:47;19.00;99.90
9925;DHT22;5001;51.674;7.868;2023-06-04T05:01:14;19.80;99.90
9925;DHT22;5001;51.674;7.868;2023-06-04T05:03:42;20.00;99.90
9925;DHT22;5001;51.674;7.868;2023-06-04T05:06:12;20.50;99.90
9925;DHT22;5001;51.674;7.868;2023-06-04T05:08:39;20.30;99.90
9925;DHT22;5001;51.674;7.868;2023-06-04T05:11:06;20.80;99.90
9925;DHT22;5001;51.674;7.868;2023-06-04T05:13:35;21.20;99.90
9925;DHT22;5001;51.674;7.868;2023-06-04T05:16:04;21.60;99.90
9925;DHT22;5001;51.674;7.868;2023-06-04T05:18:40;21.70;99.90
9925;DHT22;5001;51.674;7.868;2023-06-04T05:21:15;22.00;99.90
9925;DHT22;5001;51.674;7.868;2023-06-04T05:23:52;22.80;99.90
9925;DHT22;5001;51.674;7.868;2023-06-04T05:26:21;23.10;99.90
9925;DHT22;5001;51.674;7.868;2023-06-04T05:28:54;22.70;99.90
9925;DHT22;5001;51.674;7.868;2023-06-04T05:31:26;22.50;99.90
9925;DHT22;5001;51.674;7.868;2023-06-04T05:33:58;23.20;99.90
9925;DHT22;5001;51.674;7.868;2023-06-04T05:36:30;23.40;99.90
9925;DHT22;5001;51.674;7.868;2023-06-04T05:39:01;23.90;99.90
9925;DHT22;5001;51.674;7.868;2023-06-04T05:41:37;24.40;99.90
9925;DHT22;5001;51.674;7.868;2023-06-04T05:44:08;24.70;99.90
9925;DHT22;5001;51.674;7.868;2023-06-04T05:46:35;25.20;99.90
9925;DHT22;5001;51.674;7.868;2023-06-04T05:49:02;24.50;99.90
9925;DHT22;5001;51.674;7.868;2023-06-04T05:51:29;24.60;99.90
9925;DHT22;5001;51.674;7.868;2023-06-04T05:53:57;24.20;99.90
9925;DHT22;5001;51.674;7.868;2023-06-04T05:56:24;24.60;99.90
9925;DHT22;5001;51.674;7.868;2023-06-04T05:58:54;25.20;99.90
9925;DHT22;5001;51.674;7.868;2023-06-04T06:01:24;25.60;99.90
9925;DHT22;5001;51.674;7.868;2023-06-04T06:03:51;25.90;99.90
9925;DHT22;5001;51.674;7.868;2023-06-04T06:06:21;26.10;99.90
9925;DHT22;5001;51.674;7.868;2023-06-04T06:08:48;27.20;99.90
9925;DHT22;5001;51.674;7.868;2023-06-04T06:11:16;27.80;99.90
9925;DHT22;5001;51.674;7.868;2023-06-04T06:13:43;28.20;99.90
9925;DHT22;5001;51.674;7.868;2023-06-04T06:16:12;29.00;99.90
9925;DHT22;5001;51.674;7.868;2023-06-04T06:18:39;27.20;99.90
9925;DHT22;5001;51.674;7.868;2023-06-04T06:21:06;27.40;99.90
9925;DHT22;5001;51.674;7.868;2023-06-04T06:23:37;27.70;99.90
9925;DHT22;5001;51.674;7.868;2023-06-04T06:26:05;27.10;99.90
9925;DHT22;5001;51.674;7.868;2023-06-04T06:28:41;26.10;99.90
9925;DHT22;5001;51.674;7.868;2023-06-04T06:31:09;27.10;99.90
9925;DHT22;5001;51.674;7.868;2023-06-04T06:33:36;26.60;99.90
9925;DHT22;5001;51.674;7.868;2023-06-04T06:36:11;27.60;99.90
9925;DHT22;5001;51.674;7.868;2023-06-04T06:38:40;28.20;99.90
9925;DHT22;5001;51.674;7.868;2023-06-04T06:41:08;27.30;99.90
9925;DHT22;5001;51.674;7.868;2023-06-04T06:43:36;28.20;99.90
9925;DHT22;5001;51.674;7.868;2023-06-04T06:46:04;27.90;99.90
9925;DHT22;5001;51.674;7.868;2023-06-04T06:48:31;29.30;99.90
9925;DHT22;5001;51.674;7.868;2023-06-04T06:50:58;29.70;99.90
9925;DHT22;5001;51.674;7.868;2023-06-04T06:53:25;29.20;98.80
9925;DHT22;5001;51.674;7.868;2023-06-04T06:55:52;29.10;99.20
9925;DHT22;5001;51.674;7.868;2023-06-04T06:58:19;29.20;98.90
9925;DHT22;5001;51.674;7.868;2023-06-04T07:00:46;29.90;99.50
9925;DHT22;5001;51.674;7.868;2023-06-04T07:03:13;29.80;98.70
9925;DHT22;5001;51.674;7.868;2023-06-04T07:05:40;31.40;98.60
9925;DHT22;5001;51.674;7.868;2023-06-04T07:08:07;31.20;96.70
9925;DHT22;5001;51.674;7.868;2023-06-04T07:10:34;31.50;96.90
9925;DHT22;5001;51.674;7.868;2023-06-04T07:13:01;32.30;97.10
9925;DHT22;5001;51.674;7.868;2023-06-04T07:15:28;33.40;96.30
9925;DHT22;5001;51.674;7.868;2023-06-04T07:17:55;32.40;96.90
9925;DHT22;5001;51.674;7.868;2023-06-04T07:20:22;32.00;95.40
9925;DHT22;5001;51.674;7.868;2023-06-04T07:22:49;31.40;95.60
9925;DHT22;5001;51.674;7.868;2023-06-04T07:25:16;30.00;94.90
9925;DHT22;5001;51.674;7.868;2023-06-04T07:27:43;31.30;95.30
9925;DHT22;5001;51.674;7.868;2023-06-04T07:30:13;29.30;93.30
9925;DHT22;5001;51.674;7.868;2023-06-04T07:32:40;30.40;95.40
9925;DHT22;5001;51.674;7.868;2023-06-04T07:35:08;31.90;94.60
9925;DHT22;5001;51.674;7.868;2023-06-04T07:37:35;31.00;93.90
9925;DHT22;5001;51.674;7.868;2023-06-04T07:40:02;31.60;93.20
9925;DHT22;5001;51.674;7.868;2023-06-04T07:42:30;32.20;95.00
9925;DHT22;5001;51.674;7.868;2023-06-04T07:45:00;32.70;93.30
9925;DHT22;5001;51.674;7.868;2023-06-04T07:47:28;32.00;93.40
9925;DHT22;5001;51.674;7.868;2023-06-04T07:49:55;32.90;93.40
9925;DHT22;5001;51.674;7.868;2023-06-04T07:52:29;33.00;93.20
9925;DHT22;5001;51.674;7.868;2023-06-04T07:54:57;33.70;93.20
9925;DHT22;5001;51.674;7.868;2023-06-04T07:57:24;34.20;93.00
9925;DHT22;5001;51.674;7.868;2023-06-04T07:59:52;33.80;91.00
9925;DHT22;5001;51.674;7.868;2023-06-04T08:02:19;33.30;92.00
9925;DHT22;5001;51.674;7.868;2023-06-04T08:04:46;33.10;92.30
9925;DHT22;5001;51.674;7.868;2023-06-04T08:07:14;34.10;92.40
9925;DHT22;5001;51.674;7.868;2023-06-04T08:09:41;34.40;89.10
9925;DHT22;5001;51.674;7.868;2023-06-04T08:12:08;33.00;86.70
9925;DHT22;5001;51.674;7.868;2023-06-04T08:14:36;32.00;90.60
9925;DHT22;5001;51.674;7.868;2023-06-04T08:17:04;32.90;90.70
9925;DHT22;5001;51.674;7.868;2023-06-04T08:19:31;32.20;88.80
9925;DHT22;5001;51.674;7.868;2023-06-04T08:21:58;32.50;90.70
9925;DHT22;5001;51.674;7.868;2023-06-04T08:24:25;31.60;89.90
9925;DHT22;5001;51.674;7.868;2023-06-04T08:26:52;34.10;91.30
9925;DHT22;5001;51.674;7.868;2023-06-04T08:29:19;35.40;88.20
9925;DHT22;5001;51.674;7.868;2023-06-04T08:31:46;36.90;89.70
9925;DHT22;5001;51.674;7.868;2023-06-04T08:34:13;35.60;85.40
9925;DHT22;5001;51.674;7.868;2023-06-04T08:36:40;33.10;85.70
9925;DHT22;5001;51.674;7.868;2023-06-04T08:39:08;33.30;88.20
9925;DHT22;5001;51.674;7.868;2023-06-04T08:41:44;33.30;87.00
9925;DHT22;5001;51.674;7.868;2023-06-04T08:44:12;31.70;83.10
9925;DHT22;5001;51.674;7.868;2023-06-04T08:46:39;31.70;88.10
9925;DHT22;5001;51.674;7.868;2023-06-04T08:49:07;31.50;85.10
9925;DHT22;5001;51.674;7.868;2023-06-04T08:51:36;30.50;86.10
9925;DHT22;5001;51.674;7.868;2023-06-04T08:54:08;31.30;85.80
9925;DHT22;5001;51.674;7.868;2023-06-04T08:56:37;32.80;86.00
9925;DHT22;5001;51.674;7.868;2023-06-04T08:59:05;32.70;85.10
9925;DHT22;5001;51.674;7.868;2023-06-04T09:01:35;32.10;81.30
9925;DHT22;5001;51.674;7.868;2023-06-04T09:04:06;32.20;80.70
9925;DHT22;5001;51.674;7.868;2023-06-04T09:06:39;31.90;81.50
9925;DHT22;5001;51.674;7.868;2023-06-04T09:09:09;31.90;81.10
9925;DHT22;5001;51.674;7.868;2023-06-04T09:11:52;32.10;81.60
9925;DHT22;5001;51.674;7.868;2023-06-04T09:14:20;32.60;80.80
9925;DHT22;5001;51.674;7.868;2023-06-04T09:16:49;32.60;79.40
9925;DHT22;5001;51.674;7.868;2023-06-04T09:19:17;33.30;82.50
9925;DHT22;5001;51.674;7.868;2023-06-04T09:21:58;32.20;77.20
9925;DHT22;5001;51.674;7.868;2023-06-04T09:24:46;30.50;75.40
9925;DHT22;5001;51.674;7.868;2023-06-04T09:27:15;30.30;76.80
9925;DHT22;5001;51.674;7.868;2023-06-04T09:29:53;29.90;75.60
9925;DHT22;5001;51.674;7.868;2023-06-04T09:32:28;30.20;76.50
9925;DHT22;5001;51.674;7.868;2023-06-04T09:35:14;28.70;73.70
9925;DHT22;5001;51.674;7.868;2023-06-04T09:37:43;28.30;74.90
9925;DHT22;5001;51.674;7.868;2023-06-04T09:40:17;29.30;76.80
9925;DHT22;5001;51.674;7.868;2023-06-04T09:42:47;29.80;73.80
9925;DHT22;5001;51.674;7.868;2023-06-04T09:45:31;30.40;74.30
9925;DHT22;5001;51.674;7.868;2023-06-04T09:47:59;28.70;73.30
9925;DHT22;5001;51.674;7.868;2023-06-04T09:50:32;28.90;72.80
9925;DHT22;5001;51.674;7.868;2023-06-04T09:53:01;29.80;73.50
9925;DHT22;5001;51.674;7.868;2023-06-04T09:55:29;29.50;71.70
9925;DHT22;5001;51.674;7.868;2023-06-04T09:57:57;30.10;71.40
9925;DHT22;5001;51.674;7.868;2023-06-04T10:00:25;30.00;70.20
9925;DHT22;5001;51.674;7.868;2023-06-04T10:02:57;29.00;69.30
9925;DHT22;5001;51.674;7.868;2023-06-04T10:05:26;29.40;70.30
9925;DHT22;5001;51.674;7.868;2023-06-04T10:07:55;30.10;71.50
9925;DHT22;5001;51.674;7.868;2023-06-04T10:10:26;29.30;70.00
9925;DHT22;5001;51.674;7.868;2023-06-04T10:13:00;28.50;67.50
9925;DHT22;5001;51.674;7.868;2023-06-04T10:15:29;28.80;92.10
9925;DHT22;5001;51.674;7.868;2023-06-04T10:17:59;28.60;68.00
9925;DHT22;5001;51.674;7.868;2023-06-04T10:20:26;29.00;67.70
9925;DHT22;5001;51.674;7.868;2023-06-04T10:22:55;29.40;68.10
9925;DHT22;5001;51.674;7.868;2023-06-04T10:25:22;29.20;66.90
9925;DHT22;5001;51.674;7.868;2023-06-04T10:27:50;29.60;68.60
9925;DHT22;5001;51.674;7.868;2023-06-04T10:30:18;31.00;65.40
9925;DHT22;5001;51.674;7.868;2023-06-04T10:32:45;29.10;65.30
9925;DHT22;5001;51.674;7.868;2023-06-04T10:35:13;28.80;66.80
9925;DHT22;5001;51.674;7.868;2023-06-04T10:37:42;29.50;66.70
9925;DHT22;5001;51.674;7.868;2023-06-04T10:40:09;29.60;65.60
9925;DHT22;5001;51.674;7.868;2023-06-04T10:42:42;30.00;66.70
9925;DHT22;5001;51.674;7.868;2023-06-04T10:45:09;29.90;66.30
9925;DHT22;5001;51.674;7.868;2023-06-04T10:47:37;30.70;67.70
9925;DHT22;5001;51.674;7.868;2023-06-04T10:50:12;31.20;64.90
9925;DHT22;5001;51.674;7.868;2023-06-04T10:52:51;30.30;62.20
9925;DHT22;5001;51.674;7.868;2023-06-04T10:55:18;29.40;62.60
9925;DHT22;5001;51.674;7.868;2023-06-04T10:57:55;29.70;64.60
9925;DHT22;5001;51.674;7.868;2023-06-04T11:00:34;30.40;62.90
9925;DHT22;5001;51.674;7.868;2023-06-04T11:03:02;29.90;63.10
9925;DHT22;5001;51.674;7.868;2023-06-04T11:08:06;29.40;62.70
9925;DHT22;5001;51.674;7.868;2023-06-04T11:13:08;29.40;62.50
9925;DHT22;5001;51.674;7.868;2023-06-04T11:15:42;29.70;62.30
9925;DHT22;5001;51.674;7.868;2023-06-04T11:18:20;27.80;63.90
9925;DHT22;5001;51.674;7.868;2023-06-04T11:20:49;28.60;64.30
9925;DHT22;5001;51.674;7.868;2023-06-04T11:23:17;28.60;62.50
9925;DHT22;5001;51.674;7.868;2023-06-04T11:25:44;28.60;62.60
9925;DHT22;5001;51.674;7.868;2023-06-04T11:28:16;30.00;63.40
9925;DHT22;5001;51.674;7.868;2023-06-04T11:30:58;29.20;59.30
9925;DHT22;5001;51.674;7.868;2023-06-04T11:33:25;29.10;61.20
9925;DHT22;5001;51.674;7.868;2023-06-04T11:35:53;29.30;86.80
9925;DHT22;5001;51.674;7.868;2023-06-04T11:38:20;28.70;61.70
9925;DHT22;5001;51.674;7.868;2023-06-04T11:40:59;28.40;62.40
9925;DHT22;5001;51.674;7.868;2023-06-04T11:43:28;27.90;61.10
9925;DHT22;5001;51.674;7.868;2023-06-04T11:45:56;28.40;61.80
9925;DHT22;5001;51.674;7.868;2023-06-04T11:48:23;28.80;61.00
9925;DHT22;5001;51.674;7.868;2023-06-04T11:50:51;28.10;61.70
9925;DHT22;5001;51.674;7.868;2023-06-04T11:53:18;28.90;61.40
9925;DHT22;5001;51.674;7.868;2023-06-04T11:55:45;29.90;60.80
9925;DHT22;5001;51.674;7.868;2023-06-04T11:58:12;31.10;62.20
9925;DHT22;5001;51.674;7.868;2023-06-04T12:00:40;31.60;59.50
9925;DHT22;5001;51.674;7.868;2023-06-04T12:03:07;32.00;83.70
9925;DHT22;5001;51.674;7.868;2023-06-04T12:05:34;30.40;57.90
9925;DHT22;5001;51.674;7.868;2023-06-04T12:08:09;29.00;61.00
9925;DHT22;5001;51.674;7.868;2023-06-04T12:10:42;28.80;60.40
9925;DHT22;5001;51.674;7.868;2023-06-04T12:13:10;28.80;59.00
9925;DHT22;5001;51.674;7.868;2023-06-04T12:15:38;28.30;60.00
9925;DHT22;5001;51.674;7.868;2023-06-04T12:18:05;27.90;61.20
9925;DHT22;5001;51.674;7.868;2023-06-04T12:20:41;27.30;60.80
9925;DHT22;5001;51.674;7.868;2023-06-04T12:23:20;26.90;62.70
9925;DHT22;5001;51.674;7.868;2023-06-04T12:25:53;27.10;63.30
9925;DHT22;5001;51.674;7.868;2023-06-04T12:28:20;26.60;63.80
9925;DHT22;5001;51.674;7.868;2023-06-04T12:30:47;26.50;65.50
9925;DHT22;5001;51.674;7.868;2023-06-04T12:33:14;27.40;65.40
9925;DHT22;5001;51.674;7.868;2023-06-04T12:35:41;27.90;64.30
9925;DHT22;5001;51.674;7.868;2023-06-04T12:38:08;27.50;63.30
9925;DHT22;5001;51.674;7.868;2023-06-04T12:40:36;26.50;65.10
9925;DHT22;5001;51.674;7.868;2023-06-04T12:43:05;25.70;63.10
9925;DHT22;5001;51.674;7.868;2023-06-04T12:45:32;25.50;65.30
9925;DHT22;5001;51.674;7.868;2023-06-04T12:48:00;25.00;65.10
9925;DHT22;5001;51.674;7.868;2023-06-04T12:50:27;25.40;66.10
9925;DHT22;5001;51.674;7.868;2023-06-04T12:52:54;25.90;66.00
9925;DHT22;5001;51.674;7.868;2023-06-04T12:55:21;26.30;65.00
9925;DHT22;5001;51.674;7.868;2023-06-04T12:57:48;24.40;62.70
9925;DHT22;5001;51.674;7.868;2023-06-04T13:00:15;25.00;66.30
9925;DHT22;5001;51.674;7.868;2023-06-04T13:02:43;24.90;67.00
9925;DHT22;5001;51.674;7.868;2023-06-04T13:05:10;24.50;66.30
9925;DHT22;5001;51.674;7.868;2023-06-04T13:07:37;24.60;68.70
9925;DHT22;5001;51.674;7.868;2023-06-04T13:10:05;24.60;68.30
9925;DHT22;5001;51.674;7.868;2023-06-04T13:12:32;24.80;68.00
9925;DHT22;5001;51.674;7.868;2023-06-04T13:14:59;24.70;68.40
9925;DHT22;5001;51.674;7.868;2023-06-04T13:17:29;24.80;70.90
9925;DHT22;5001;51.674;7.868;2023-06-04T13:19:56;25.00;70.50
9925;DHT22;5001;51.674;7.868;2023-06-04T13:22:23;25.60;67.90
9925;DHT22;5001;51.674;7.868;2023-06-04T13:24:50;25.10;68.10
9925;DHT22;5001;51.674;7.868;2023-06-04T13:27:17;24.40;66.40
9925;DHT22;5001;51.674;7.868;2023-06-04T13:29:44;24.60;68.30
9925;DHT22;5001;51.674;7.868;2023-06-04T13:32:11;24.90;67.70
9925;DHT22;5001;51.674;7.868;2023-06-04T13:34:39;24.90;67.80
9925;DHT22;5001;51.674;7.868;2023-06-04T13:37:06;24.50;66.50
9925;DHT22;5001;51.674;7.868;2023-06-04T13:39:33;24.50;67.80
9925;DHT22;5001;51.674;7.868;2023-06-04T13:42:00;24.50;69.00
9925;DHT22;5001;51.674;7.868;2023-06-04T13:44:27;24.40;67.70
9925;DHT22;5001;51.674;7.868;2023-06-04T13:46:57;24.10;66.60
9925;DHT22;5001;51.674;7.868;2023-06-04T13:49:24;24.50;68.10
9925;DHT22;5001;51.674;7.868;2023-06-04T13:51:51;24.40;66.80
9925;DHT22;5001;51.674;7.868;2023-06-04T13:54:18;24.10;67.20
9925;DHT22;5001;51.674;7.868;2023-06-04T13:56:46;24.40;68.00
9925;DHT22;5001;51.674;7.868;2023-06-04T13:59:13;24.30;66.50
9925;DHT22;5001;51.674;7.868;2023-06-04T14:01:40;24.60;69.70
9925;DHT22;5001;51.674;7.868;2023-06-04T14:04:07;24.80;70.40
9925;DHT22;5001;51.674;7.868;2023-06-04T14:06:35;24.40;68.20
9925;DHT22;5001;51.674;7.868;2023-06-04T14:09:03;24.60;67.20
9925;DHT22;5001;51.674;7.868;2023-06-04T14:11:32;24.70;69.80
9925;DHT22;5001;51.674;7.868;2023-06-04T14:14:00;25.00;70.40
9925;DHT22;5001;51.674;7.868;2023-06-04T14:16:27;25.20;67.80
9925;DHT22;5001;51.674;7.868;2023-06-04T14:18:54;25.30;67.80
9925;DHT22;5001;51.674;7.868;2023-06-04T14:21:21;24.80;70.00
9925;DHT22;5001;51.674;7.868;2023-06-04T14:23:49;25.00;92.50
9925;DHT22;5001;51.674;7.868;2023-06-04T14:26:17;25.00;67.50
9925;DHT22;5001;51.674;7.868;2023-06-04T14:28:44;24.80;70.20
9925;DHT22;5001;51.674;7.868;2023-06-04T14:31:11;25.00;68.20
9925;DHT22;5001;51.674;7.868;2023-06-04T14:33:39;25.00;68.10
9925;DHT22;5001;51.674;7.868;2023-06-04T14:36:06;24.60;69.50
9925;DHT22;5001;51.674;7.868;2023-06-04T14:38:33;24.70;69.00
9925;DHT22;5001;51.674;7.868;2023-06-04T14:41:00;24.90;70.70
9925;DHT22;5001;51.674;7.868;2023-06-04T14:43:27;24.90;69.40
9925;DHT22;5001;51.674;7.868;2023-06-04T14:45:54;24.70;68.90
9925;DHT22;5001;51.674;7.868;2023-06-04T14:48:22;24.20;68.60
9925;DHT22;5001;51.674;7.868;2023-06-04T14:50:49;23.90;67.90
9925;DHT22;5001;51.674;7.868;2023-06-04T14:53:20;24.30;69.70
9925;DHT22;5001;51.674;7.868;2023-06-04T14:55:47;24.10;69.70
9925;DHT22;5001;51.674;7.868;2023-06-04T14:58:15;24.20;69.80
9925;DHT22;5001;51.674;7.868;2023-06-04T15:00:42;24.60;70.50
9925;DHT22;5001;51.674;7.868;2023-06-04T15:03:09;24.50;69.00
9925;DHT22;5001;51.674;7.868;2023-06-04T15:05:37;24.60;70.80
9925;DHT22;5001;51.674;7.868;2023-06-04T15:08:05;24.30;68.50
9925;DHT22;5001;51.674;7.868;2023-06-04T15:10:32;24.30;69.00
9925;DHT22;5001;51.674;7.868;2023-06-04T15:13:00;24.50;68.70
9925;DHT22;5001;51.674;7.868;2023-06-04T15:15:27;24.50;70.00
9925;DHT22;5001;51.674;7.868;2023-06-04T15:17:54;24.20;67.70
9925;DHT22;5001;51.674;7.868;2023-06-04T15:20:22;24.10;70.80
9925;DHT22;5001;51.674;7.868;2023-06-04T15:22:51;24.10;69.90
9925;DHT22;5001;51.674;7.868;2023-06-04T15:25:19;24.00;69.60
9925;DHT22;5001;51.674;7.868;2023-06-04T15:27:46;24.40;70.20
9925;DHT22;5001;51.674;7.868;2023-06-04T15:30:13;24.30;69.80
9925;DHT22;5001;51.674;7.868;2023-06-04T15:32:40;24.20;71.30
9925;DHT22;5001;51.674;7.868;2023-06-04T15:35:09;24.60;71.30
9925;DHT22;5001;51.674;7.868;2023-06-04T15:37:36;24.80;73.20
9925;DHT22;5001;51.674;7.868;2023-06-04T15:40:04;24.70;68.60
9925;DHT22;5001;51.674;7.868;2023-06-04T15:42:34;24.90;70.50
9925;DHT22;5001;51.674;7.868;2023-06-04T15:45:04;24.80;68.20
9925;DHT22;5001;51.674;7.868;2023-06-04T15:47:31;24.40;69.80
9925;DHT22;5001;51.674;7.868;2023-06-04T15:49:58;24.30;70.60
9925;DHT22;5001;51.674;7.868;2023-06-04T15:52:28;24.40;69.10
9925;DHT22;5001;51.674;7.868;2023-06-04T15:54:55;24.30;69.40
9925;DHT22;5001;51.674;7.868;2023-06-04T15:57:22;24.60;71.50
9925;DHT22;5001;51.674;7.868;2023-06-04T15:59:49;24.50;69.80
9925;DHT22;5001;51.674;7.868;2023-06-04T16:02:16;24.50;71.20
9925;DHT22;5001;51.674;7.868;2023-06-04T16:04:43;24.60;70.80
9925;DHT22;5001;51.674;7.868;2023-06-04T16:07:10;24.70;71.40
9925;DHT22;5001;51.674;7.868;2023-06-04T16:09:37;24.50;68.90
9925;DHT22;5001;51.674;7.868;2023-06-04T16:12:05;24.50;69.90
9925;DHT22;5001;51.674;7.868;2023-06-04T16:14:32;24.60;70.50
9925;DHT22;5001;51.674;7.868;2023-06-04T16:16:59;24.30;67.90
9925;DHT22;5001;51.674;7.868;2023-06-04T16:19:26;24.20;69.90
9925;DHT22;5001;51.674;7.868;2023-06-04T16:21:53;24.00;71.60
9925;DHT22;5001;51.674;7.868;2023-06-04T16:24:20;24.30;71.80
9925;DHT22;5001;51.674;7.868;2023-06-04T16:26:49;24.40;72.30
9925;DHT22;5001;51.674;7.868;2023-06-04T16:29:16;24.40;72.90